sensor_id;sensor_type;location;lat;lon;timestamp;P1;durP1;ratioP1;P2;durP2;ratioP2
67747;SDS011;54543;50.712;6.070;2023-08-24T00:01:15;4.57;;;2.72;;
67747;SDS011;54543;50.712;6.070;2023-08-24T00:03:41;6.07;;;2.10;;
67747;SDS011;54543;50.712;6.070;2023-08-24T00:06:09;4.50;;;2.65;;
67747;SDS011;54543;50.712;6.070;2023-08-24T00:08:36;4.68;;;2.40;;
67747;SDS011;54543;50.712;6.070;2023-08-24T00:11:02;4.03;;;2.47;;
67747;SDS011;54543;50.712;6.070;2023-08-24T00:13:27;3.58;;;2.42;;
67747;SDS011;54543;50.712;6.070;2023-08-24T00:15:53;5.13;;;2.53;;
67747;SDS011;54543;50.712;6.070;2023-08-24T00:18:19;4.57;;;2.60;;
67747;SDS011;54543;50.712;6.070;2023-08-24T00:20:47;3.60;;;2.45;;
67747;SDS011;54543;50.712;6.070;2023-08-24T00:23:14;3.75;;;2.50;;
67747;SDS011;54543;50.712;6.070;2023-08-24T00:25:39;4.18;;;2.60;;
67747;SDS011;54543;50.712;6.070;2023-08-24T00:28:06;6.38;;;2.47;;
67747;SDS011;54543;50.712;6.070;2023-08-24T00:30:32;3.85;;;2.50;;
67747;SDS011;54543;50.712;6.070;2023-08-24T00:32:57;3.10;;;2.25;;
67747;SDS011;54543;50.712;6.070;2023-08-24T00:35:23;3.63;;;2.50;;
67747;SDS011;54543;50.712;6.070;2023-08-24T00:37:48;5.30;;;2.30;;
67747;SDS011;54543;50.712;6.070;2023-08-24T00:40:15;3.80;;;2.25;;
67747;SDS011;54543;50.712;6.070;2023-08-24T00:42:42;3.17;;;2.30;;
67747;SDS011;54543;50.712;6.070;2023-08-24T00:45:09;4.05;;;2.47;;
67747;SDS011;54543;50.712;6.070;2023-08-24T00:47:36;4.47;;;2.40;;
67747;SDS011;54543;50.712;6.070;2023-08-24T00:50:04;4.18;;;2.55;;
67747;SDS011;54543;50.712;6.070;2023-08-24T00:52:30;4.43;;;2.60;;
67747;SDS011;54543;50.712;6.070;2023-08-24T00:54:58;3.50;;;2.45;;
67747;SDS011;54543;50.712;6.070;2023-08-24T00:57:25;2.95;;;2.20;;
67747;SDS011;54543;50.712;6.070;2023-08-24T00:59:54;3.45;;;2.45;;
67747;SDS011;54543;50.712;6.070;2023-08-24T01:02:21;3.67;;;2.47;;
67747;SDS011;54543;50.712;6.070;2023-08-24T01:04:46;3.95;;;2.55;;
67747;SDS011;54543;50.712;6.070;2023-08-24T01:07:12;4.20;;;2.45;;
67747;SDS011;54543;50.712;6.070;2023-08-24T01:09:39;5.10;;;2.42;;
67747;SDS011;54543;50.712;6.070;2023-08-24T01:17:32;3.78;;;2.40;;
67747;SDS011;54543;50.712;6.070;2023-08-24T01:20:01;4.47;;;2.20;;
67747;SDS011;54543;50.712;6.070;2023-08-24T01:22:35;3.95;;;2.25;;
67747;SDS011;54543;50.712;6.070;2023-08-24T01:27:36;2.92;;;2.20;;
67747;SDS011;54543;50.712;6.070;2023-08-24T01:30:03;3.80;;;2.40;;
67747;SDS011;54543;50.712;6.070;2023-08-24T01:32:31;3.65;;;2.25;;
67747;SDS011;54543;50.712;6.070;2023-08-24T01:34:58;3.40;;;2.05;;
67747;SDS011;54543;50.712;6.070;2023-08-24T01:37:25;5.78;;;2.40;;
67747;SDS011;54543;50.712;6.070;2023-08-24T01:40:07;4.13;;;2.22;;
67747;SDS011;54543;50.712;6.070;2023-08-24T01:42:43;4.72;;;2.00;;
67747;SDS011;54543;50.712;6.070;2023-08-24T01:45:16;3.80;;;2.38;;
67747;SDS011;54543;50.712;6.070;2023-08-24T01:47:43;3.13;;;2.05;;
67747;SDS011;54543;50.712;6.070;2023-08-24T01:50:12;4.18;;;2.13;;
67747;SDS011;54543;50.712;6.070;2023-08-24T01:52:38;2.83;;;2.10;;
67747;SDS011;54543;50.712;6.070;2023-08-24T01:55:05;3.92;;;2.10;;
67747;SDS011;54543;50.712;6.070;2023-08-24T01:57:31;2.97;;;1.95;;
67747;SDS011;54543;50.712;6.070;2023-08-24T01:59:56;4.93;;;2.30;;
67747;SDS011;54543;50.712;6.070;2023-08-24T02:02:23;2.90;;;1.90;;
67747;SDS011;54543;50.712;6.070;2023-08-24T02:04:49;2.80;;;2.17;;
67747;SDS011;54543;50.712;6.070;2023-08-24T02:07:14;3.97;;;2.10;;
67747;SDS011;54543;50.712;6.070;2023-08-24T02:09:40;3.00;;;2.10;;
67747;SDS011;54543;50.712;6.070;2023-08-24T02:12:05;4.72;;;2.17;;
67747;SDS011;54543;50.712;6.070;2023-08-24T02:14:31;2.97;;;2.13;;
67747;SDS011;54543;50.712;6.070;2023-08-24T02:16:57;2.67;;;2.05;;
67747;SDS011;54543;50.712;6.070;2023-08-24T02:19:22;3.10;;;2.25;;
67747;SDS011;54543;50.712;6.070;2023-08-24T02:21:48;4.47;;;2.50;;
67747;SDS011;54543;50.712;6.070;2023-08-24T02:24:13;3.63;;;2.20;;
67747;SDS011;54543;50.712;6.070;2023-08-24T02:26:39;3.75;;;2.20;;
67747;SDS011;54543;50.712;6.070;2023-08-24T02:29:05;3.55;;;2.40;;
67747;SDS011;54543;50.712;6.070;2023-08-24T02:31:31;5.40;;;2.80;;
67747;SDS011;54543;50.712;6.070;2023-08-24T02:33:57;3.35;;;2.47;;
67747;SDS011;54543;50.712;6.070;2023-08-24T02:36:22;3.38;;;2.35;;
67747;SDS011;54543;50.712;6.070;2023-08-24T02:38:48;3.97;;;2.20;;
67747;SDS011;54543;50.712;6.070;2023-08-24T02:41:13;3.20;;;2.17;;
67747;SDS011;54543;50.712;6.070;2023-08-24T02:43:39;6.00;;;2.35;;
67747;SDS011;54543;50.712;6.070;2023-08-24T02:46:06;4.75;;;2.38;;
67747;SDS011;54543;50.712;6.070;2023-08-24T02:48:33;4.03;;;2.60;;
67747;SDS011;54543;50.712;6.070;2023-08-24T02:51:00;4.25;;;2.30;;
67747;SDS011;54543;50.712;6.070;2023-08-24T02:53:28;3.80;;;2.25;;
67747;SDS011;54543;50.712;6.070;2023-08-24T02:55:54;3.97;;;2.22;;
67747;SDS011;54543;50.712;6.070;2023-08-24T02:58:23;3.42;;;2.15;;
67747;SDS011;54543;50.712;6.070;2023-08-24T03:00:48;2.92;;;2.00;;
67747;SDS011;54543;50.712;6.070;2023-08-24T03:03:14;3.10;;;2.05;;
67747;SDS011;54543;50.712;6.070;2023-08-24T03:05:40;3.40;;;2.15;;
67747;SDS011;54543;50.712;6.070;2023-08-24T03:08:07;5.90;;;2.40;;
67747;SDS011;54543;50.712;6.070;2023-08-24T03:10:35;3.88;;;2.13;;
67747;SDS011;54543;50.712;6.070;2023-08-24T03:13:01;4.55;;;2.13;;
67747;SDS011;54543;50.712;6.070;2023-08-24T03:15:29;4.65;;;2.70;;
67747;SDS011;54543;50.712;6.070;2023-08-24T03:17:55;4.60;;;2.50;;
67747;SDS011;54543;50.712;6.070;2023-08-24T03:20:20;6.07;;;2.85;;
67747;SDS011;54543;50.712;6.070;2023-08-24T03:22:47;3.92;;;2.80;;
67747;SDS011;54543;50.712;6.070;2023-08-24T03:25:13;3.40;;;2.30;;
67747;SDS011;54543;50.712;6.070;2023-08-24T03:27:38;3.58;;;2.47;;
67747;SDS011;54543;50.712;6.070;2023-08-24T03:30:04;6.35;;;3.45;;
67747;SDS011;54543;50.712;6.070;2023-08-24T03:32:31;4.47;;;2.97;;
67747;SDS011;54543;50.712;6.070;2023-08-24T03:34:59;4.47;;;2.50;;
67747;SDS011;54543;50.712;6.070;2023-08-24T03:37:25;3.83;;;2.85;;
67747;SDS011;54543;50.712;6.070;2023-08-24T03:39:50;5.00;;;3.08;;
67747;SDS011;54543;50.712;6.070;2023-08-24T03:42:16;4.40;;;3.00;;
67747;SDS011;54543;50.712;6.070;2023-08-24T03:44:42;4.13;;;2.88;;
67747;SDS011;54543;50.712;6.070;2023-08-24T03:47:07;3.13;;;2.40;;
67747;SDS011;54543;50.712;6.070;2023-08-24T03:49:34;5.93;;;3.50;;
67747;SDS011;54543;50.712;6.070;2023-08-24T03:51:59;4.72;;;3.33;;
67747;SDS011;54543;50.712;6.070;2023-08-24T03:54:25;4.32;;;3.22;;
67747;SDS011;54543;50.712;6.070;2023-08-24T03:56:50;6.60;;;4.20;;
67747;SDS011;54543;50.712;6.070;2023-08-24T03:59:16;7.43;;;5.15;;
67747;SDS011;54543;50.712;6.070;2023-08-24T04:01:42;8.20;;;5.40;;
67747;SDS011;54543;50.712;6.070;2023-08-24T04:04:07;6.22;;;3.92;;
67747;SDS011;54543;50.712;6.070;2023-08-24T04:06:33;6.05;;;3.42;;
67747;SDS011;54543;50.712;6.070;2023-08-24T04:08:59;5.25;;;3.13;;
67747;SDS011;54543;50.712;6.070;2023-08-24T04:11:24;4.82;;;3.10;;
67747;SDS011;54543;50.712;6.070;2023-08-24T04:13:50;4.93;;;3.05;;
67747;SDS011;54543;50.712;6.070;2023-08-24T04:16:16;6.78;;;3.08;;
67747;SDS011;54543;50.712;6.070;2023-08-24T04:18:41;4.70;;;3.15;;
67747;SDS011;54543;50.712;6.070;2023-08-24T04:21:07;7.57;;;3.22;;
67747;SDS011;54543;50.712;6.070;2023-08-24T04:23:33;4.95;;;3.17;;
67747;SDS011;54543;50.712;6.070;2023-08-24T04:25:58;4.35;;;2.90;;
67747;SDS011;54543;50.712;6.070;2023-08-24T04:28:24;5.60;;;3.17;;
67747;SDS011;54543;50.712;6.070;2023-08-24T04:30:53;4.80;;;2.80;;
67747;SDS011;54543;50.712;6.070;2023-08-24T04:33:19;6.95;;;3.67;;
67747;SDS011;54543;50.712;6.070;2023-08-24T04:35:46;5.22;;;3.20;;
67747;SDS011;54543;50.712;6.070;2023-08-24T04:38:15;4.00;;;2.83;;
67747;SDS011;54543;50.712;6.070;2023-08-24T04:40:59;5.10;;;3.50;;
67747;SDS011;54543;50.712;6.070;2023-08-24T04:43:25;4.90;;;3.28;;
67747;SDS011;54543;50.712;6.070;2023-08-24T04:45:53;5.28;;;3.63;;
67747;SDS011;54543;50.712;6.070;2023-08-24T04:48:22;4.57;;;3.38;;
67747;SDS011;54543;50.712;6.070;2023-08-24T04:50:49;4.95;;;3.13;;
67747;SDS011;54543;50.712;6.070;2023-08-24T04:53:19;4.82;;;3.47;;
67747;SDS011;54543;50.712;6.070;2023-08-24T04:55:45;6.63;;;3.50;;
67747;SDS011;54543;50.712;6.070;2023-08-24T04:58:12;5.90;;;3.28;;
67747;SDS011;54543;50.712;6.070;2023-08-24T05:00:40;4.03;;;3.00;;
67747;SDS011;54543;50.712;6.070;2023-08-24T05:03:06;5.60;;;2.95;;
67747;SDS011;54543;50.712;6.070;2023-08-24T05:05:33;4.60;;;3.58;;
67747;SDS011;54543;50.712;6.070;2023-08-24T05:08:00;4.85;;;3.22;;
67747;SDS011;54543;50.712;6.070;2023-08-24T05:10:29;5.28;;;3.42;;
67747;SDS011;54543;50.712;6.070;2023-08-24T05:12:55;6.57;;;3.80;;
67747;SDS011;54543;50.712;6.070;2023-08-24T05:15:21;4.97;;;3.58;;
67747;SDS011;54543;50.712;6.070;2023-08-24T05:17:47;7.72;;;3.85;;
67747;SDS011;54543;50.712;6.070;2023-08-24T05:20:12;11.23;;;4.25;;
67747;SDS011;54543;50.712;6.070;2023-08-24T05:22:38;6.70;;;3.33;;
67747;SDS011;54543;50.712;6.070;2023-08-24T05:25:04;6.18;;;3.55;;
67747;SDS011;54543;50.712;6.070;2023-08-24T05:27:30;5.70;;;3.30;;
67747;SDS011;54543;50.712;6.070;2023-08-24T05:29:56;6.90;;;3.78;;
67747;SDS011;54543;50.712;6.070;2023-08-24T05:32:21;8.10;;;4.97;;
67747;SDS011;54543;50.712;6.070;2023-08-24T05:34:47;6.60;;;3.72;;
67747;SDS011;54543;50.712;6.070;2023-08-24T05:37:12;5.13;;;3.58;;
67747;SDS011;54543;50.712;6.070;2023-08-24T05:39:38;9.70;;;6.38;;
67747;SDS011;54543;50.712;6.070;2023-08-24T05:42:04;6.45;;;4.45;;
67747;SDS011;54543;50.712;6.070;2023-08-24T05:44:30;6.43;;;4.32;;
67747;SDS011;54543;50.712;6.070;2023-08-24T05:46:55;5.55;;;4.13;;
67747;SDS011;54543;50.712;6.070;2023-08-24T05:49:24;5.22;;;3.42;;
67747;SDS011;54543;50.712;6.070;2023-08-24T05:51:51;4.43;;;2.90;;
67747;SDS011;54543;50.712;6.070;2023-08-24T05:54:20;4.78;;;3.33;;
67747;SDS011;54543;50.712;6.070;2023-08-24T05:59:15;5.00;;;3.10;;
67747;SDS011;54543;50.712;6.070;2023-08-24T06:01:40;6.93;;;3.97;;
67747;SDS011;54543;50.712;6.070;2023-08-24T06:04:07;5.65;;;3.33;;
67747;SDS011;54543;50.712;6.070;2023-08-24T06:06:36;5.45;;;3.20;;
67747;SDS011;54543;50.712;6.070;2023-08-24T06:09:02;3.90;;;2.70;;
67747;SDS011;54543;50.712;6.070;2023-08-24T06:11:33;4.72;;;3.10;;
67747;SDS011;54543;50.712;6.070;2023-08-24T06:13:58;4.95;;;2.40;;
67747;SDS011;54543;50.712;6.070;2023-08-24T06:16:28;4.25;;;2.83;;
67747;SDS011;54543;50.712;6.070;2023-08-24T06:18:54;3.55;;;2.45;;
67747;SDS011;54543;50.712;6.070;2023-08-24T06:21:19;4.40;;;2.80;;
67747;SDS011;54543;50.712;6.070;2023-08-24T06:23:48;3.33;;;2.30;;
67747;SDS011;54543;50.712;6.070;2023-08-24T06:28:46;3.13;;;2.17;;
67747;SDS011;54543;50.712;6.070;2023-08-24T06:36:19;3.70;;;2.70;;
67747;SDS011;54543;50.712;6.070;2023-08-24T06:41:19;3.30;;;2.10;;
67747;SDS011;54543;50.712;6.070;2023-08-24T06:43:48;3.60;;;2.20;;
67747;SDS011;54543;50.712;6.070;2023-08-24T06:48:44;4.57;;;2.60;;
67747;SDS011;54543;50.712;6.070;2023-08-24T06:51:11;4.32;;;2.33;;
67747;SDS011;54543;50.712;6.070;2023-08-24T06:53:40;3.10;;;2.40;;
67747;SDS011;54543;50.712;6.070;2023-08-24T06:56:07;3.85;;;2.25;;
67747;SDS011;54543;50.712;6.070;2023-08-24T06:58:37;3.45;;;2.38;;
67747;SDS011;54543;50.712;6.070;2023-08-24T07:01:05;2.78;;;2.00;;
67747;SDS011;54543;50.712;6.070;2023-08-24T07:03:35;3.92;;;2.10;;
67747;SDS011;54543;50.712;6.070;2023-08-24T07:06:08;4.25;;;2.72;;
67747;SDS011;54543;50.712;6.070;2023-08-24T07:08:47;3.03;;;2.30;;
67747;SDS011;54543;50.712;6.070;2023-08-24T07:11:14;6.05;;;2.58;;
67747;SDS011;54543;50.712;6.070;2023-08-24T07:13:46;3.28;;;2.20;;
67747;SDS011;54543;50.712;6.070;2023-08-24T07:16:14;2.92;;;1.92;;
67747;SDS011;54543;50.712;6.070;2023-08-24T07:18:43;5.03;;;2.58;;
67747;SDS011;54543;50.712;6.070;2023-08-24T07:23:42;3.50;;;2.25;;
67747;SDS011;54543;50.712;6.070;2023-08-24T07:26:10;3.30;;;2.05;;
67747;SDS011;54543;50.712;6.070;2023-08-24T07:28:37;2.80;;;1.90;;
67747;SDS011;54543;50.712;6.070;2023-08-24T07:36:27;3.78;;;2.17;;
67747;SDS011;54543;50.712;6.070;2023-08-24T07:38:58;3.92;;;2.28;;
67747;SDS011;54543;50.712;6.070;2023-08-24T07:41:27;3.53;;;2.13;;
67747;SDS011;54543;50.712;6.070;2023-08-24T07:43:56;4.28;;;2.85;;
67747;SDS011;54543;50.712;6.070;2023-08-24T07:46:24;2.72;;;2.08;;
67747;SDS011;54543;50.712;6.070;2023-08-24T07:48:52;5.13;;;2.70;;
67747;SDS011;54543;50.712;6.070;2023-08-24T07:51:21;4.00;;;2.42;;
67747;SDS011;54543;50.712;6.070;2023-08-24T07:53:48;4.18;;;2.80;;
67747;SDS011;54543;50.712;6.070;2023-08-24T07:56:19;3.55;;;2.50;;
67747;SDS011;54543;50.712;6.070;2023-08-24T07:58:44;3.28;;;2.00;;
67747;SDS011;54543;50.712;6.070;2023-08-24T08:01:11;3.90;;;2.55;;
67747;SDS011;54543;50.712;6.070;2023-08-24T08:03:42;4.25;;;2.67;;
67747;SDS011;54543;50.712;6.070;2023-08-24T08:06:09;3.10;;;2.08;;
67747;SDS011;54543;50.712;6.070;2023-08-24T08:11:03;2.80;;;2.00;;
67747;SDS011;54543;50.712;6.070;2023-08-24T08:13:29;4.22;;;2.40;;
67747;SDS011;54543;50.712;6.070;2023-08-24T08:16:04;2.95;;;1.92;;
67747;SDS011;54543;50.712;6.070;2023-08-24T08:18:31;5.25;;;1.95;;
67747;SDS011;54543;50.712;6.070;2023-08-24T08:20:59;3.05;;;1.92;;
67747;SDS011;54543;50.712;6.070;2023-08-24T08:23:30;3.72;;;1.92;;
67747;SDS011;54543;50.712;6.070;2023-08-24T08:25:59;2.80;;;1.83;;
67747;SDS011;54543;50.712;6.070;2023-08-24T08:28:26;2.75;;;1.48;;
67747;SDS011;54543;50.712;6.070;2023-08-24T08:30:53;3.40;;;2.30;;
67747;SDS011;54543;50.712;6.070;2023-08-24T08:33:21;3.85;;;2.63;;
67747;SDS011;54543;50.712;6.070;2023-08-24T08:35:47;3.20;;;2.00;;
67747;SDS011;54543;50.712;6.070;2023-08-24T08:40:44;4.22;;;2.60;;
67747;SDS011;54543;50.712;6.070;2023-08-24T08:45:44;4.00;;;2.38;;
67747;SDS011;54543;50.712;6.070;2023-08-24T08:48:23;4.32;;;2.53;;
67747;SDS011;54543;50.712;6.070;2023-08-24T08:50:50;5.30;;;2.70;;
67747;SDS011;54543;50.712;6.070;2023-08-24T08:53:22;4.05;;;2.70;;
67747;SDS011;54543;50.712;6.070;2023-08-24T08:55:51;4.70;;;2.13;;
67747;SDS011;54543;50.712;6.070;2023-08-24T08:58:36;4.30;;;2.28;;
67747;SDS011;54543;50.712;6.070;2023-08-24T09:01:03;2.72;;;1.80;;
67747;SDS011;54543;50.712;6.070;2023-08-24T09:03:30;2.83;;;1.88;;
67747;SDS011;54543;50.712;6.070;2023-08-24T09:06:13;2.95;;;1.80;;
67747;SDS011;54543;50.712;6.070;2023-08-24T09:08:46;2.70;;;1.77;;
67747;SDS011;54543;50.712;6.070;2023-08-24T09:13:42;5.05;;;1.67;;
67747;SDS011;54543;50.712;6.070;2023-08-24T09:16:10;3.20;;;1.70;;
67747;SDS011;54543;50.712;6.070;2023-08-24T09:18:43;3.50;;;1.75;;
67747;SDS011;54543;50.712;6.070;2023-08-24T09:21:24;5.20;;;1.77;;
67747;SDS011;54543;50.712;6.070;2023-08-24T09:26:49;3.50;;;1.83;;
67747;SDS011;54543;50.712;6.070;2023-08-24T09:29:36;4.85;;;2.00;;
67747;SDS011;54543;50.712;6.070;2023-08-24T09:37:33;4.38;;;1.70;;
67747;SDS011;54543;50.712;6.070;2023-08-24T09:40:01;3.00;;;1.92;;
67747;SDS011;54543;50.712;6.070;2023-08-24T09:42:38;2.55;;;1.92;;
67747;SDS011;54543;50.712;6.070;2023-08-24T09:48:29;4.85;;;2.10;;
67747;SDS011;54543;50.712;6.070;2023-08-24T09:53:59;3.92;;;1.67;;
67747;SDS011;54543;50.712;6.070;2023-08-24T09:56:41;3.30;;;1.65;;
67747;SDS011;54543;50.712;6.070;2023-08-24T09:59:11;4.57;;;1.80;;
67747;SDS011;54543;50.712;6.070;2023-08-24T10:01:51;2.38;;;1.58;;
67747;SDS011;54543;50.712;6.070;2023-08-24T10:04:34;3.35;;;1.60;;
67747;SDS011;54543;50.712;6.070;2023-08-24T10:07:08;5.05;;;1.95;;
67747;SDS011;54543;50.712;6.070;2023-08-24T10:13:18;5.03;;;1.92;;
67747;SDS011;54543;50.712;6.070;2023-08-24T10:16:18;3.67;;;2.13;;
67747;SDS011;54543;50.712;6.070;2023-08-24T10:18:46;4.95;;;2.20;;
67747;SDS011;54543;50.712;6.070;2023-08-24T10:21:17;3.42;;;1.80;;
67747;SDS011;54543;50.712;6.070;2023-08-24T10:23:45;5.50;;;1.70;;
67747;SDS011;54543;50.712;6.070;2023-08-24T10:28:42;6.10;;;1.92;;
67747;SDS011;54543;50.712;6.070;2023-08-24T10:37:11;3.85;;;1.83;;
67747;SDS011;54543;50.712;6.070;2023-08-24T10:42:44;5.70;;;2.53;;
67747;SDS011;54543;50.712;6.070;2023-08-24T10:45:15;4.25;;;2.10;;
67747;SDS011;54543;50.712;6.070;2023-08-24T10:48:18;2.80;;;1.98;;
67747;SDS011;54543;50.712;6.070;2023-08-24T10:51:01;3.45;;;1.98;;
67747;SDS011;54543;50.712;6.070;2023-08-24T10:54:06;4.25;;;2.03;;
67747;SDS011;54543;50.712;6.070;2023-08-24T10:56:55;3.00;;;2.00;;
67747;SDS011;54543;50.712;6.070;2023-08-24T11:02:52;4.43;;;2.60;;
67747;SDS011;54543;50.712;6.070;2023-08-24T11:05:30;4.63;;;2.33;;
67747;SDS011;54543;50.712;6.070;2023-08-24T11:08:00;5.30;;;3.03;;
67747;SDS011;54543;50.712;6.070;2023-08-24T11:10:45;5.35;;;2.58;;
67747;SDS011;54543;50.712;6.070;2023-08-24T11:13:18;4.93;;;3.38;;
67747;SDS011;54543;50.712;6.070;2023-08-24T11:15:56;6.38;;;3.28;;
67747;SDS011;54543;50.712;6.070;2023-08-24T11:18:28;6.70;;;4.10;;
67747;SDS011;54543;50.712;6.070;2023-08-24T11:21:02;5.68;;;3.58;;
67747;SDS011;54543;50.712;6.070;2023-08-24T11:23:33;5.82;;;3.85;;
67747;SDS011;54543;50.712;6.070;2023-08-24T11:26:09;6.40;;;3.92;;
67747;SDS011;54543;50.712;6.070;2023-08-24T11:28:38;4.57;;;2.90;;
67747;SDS011;54543;50.712;6.070;2023-08-24T11:31:04;5.63;;;3.70;;
67747;SDS011;54543;50.712;6.070;2023-08-24T11:33:35;5.20;;;3.20;;
67747;SDS011;54543;50.712;6.070;2023-08-24T11:36:06;4.45;;;3.20;;
67747;SDS011;54543;50.712;6.070;2023-08-24T11:38:39;4.47;;;2.20;;
67747;SDS011;54543;50.712;6.070;2023-08-24T11:43:58;3.50;;;2.53;;
67747;SDS011;54543;50.712;6.070;2023-08-24T11:46:28;6.18;;;2.70;;
67747;SDS011;54543;50.712;6.070;2023-08-24T11:48:57;3.47;;;2.30;;
67747;SDS011;54543;50.712;6.070;2023-08-24T11:51:27;4.07;;;2.53;;
67747;SDS011;54543;50.712;6.070;2023-08-24T11:53:53;3.72;;;2.78;;
67747;SDS011;54543;50.712;6.070;2023-08-24T11:56:22;4.60;;;2.63;;
67747;SDS011;54543;50.712;6.070;2023-08-24T11:58:48;5.65;;;2.60;;
67747;SDS011;54543;50.712;6.070;2023-08-24T12:01:17;4.57;;;2.92;;
67747;SDS011;54543;50.712;6.070;2023-08-24T12:03:44;4.78;;;2.70;;
67747;SDS011;54543;50.712;6.070;2023-08-24T12:06:15;3.22;;;2.25;;
67747;SDS011;54543;50.712;6.070;2023-08-24T12:13:43;3.42;;;2.20;;
67747;SDS011;54543;50.712;6.070;2023-08-24T12:18:54;3.28;;;2.00;;
67747;SDS011;54543;50.712;6.070;2023-08-24T12:21:21;3.28;;;1.98;;
67747;SDS011;54543;50.712;6.070;2023-08-24T12:24:03;2.88;;;1.88;;
67747;SDS011;54543;50.712;6.070;2023-08-24T12:26:39;5.22;;;2.63;;
67747;SDS011;54543;50.712;6.070;2023-08-24T12:29:05;3.70;;;2.33;;
67747;SDS011;54543;50.712;6.070;2023-08-24T12:31:37;2.47;;;1.70;;
67747;SDS011;54543;50.712;6.070;2023-08-24T12:34:09;4.00;;;2.00;;
67747;SDS011;54543;50.712;6.070;2023-08-24T12:36:41;3.63;;;1.80;;
67747;SDS011;54543;50.712;6.070;2023-08-24T12:39:19;4.43;;;2.00;;
67747;SDS011;54543;50.712;6.070;2023-08-24T12:41:45;3.67;;;1.67;;
67747;SDS011;54543;50.712;6.070;2023-08-24T12:44:14;3.13;;;1.77;;
67747;SDS011;54543;50.712;6.070;2023-08-24T12:49:10;3.40;;;1.92;;
67747;SDS011;54543;50.712;6.070;2023-08-24T12:54:09;2.35;;;1.85;;
67747;SDS011;54543;50.712;6.070;2023-08-24T12:56:35;4.07;;;1.80;;
67747;SDS011;54543;50.712;6.070;2023-08-24T12:59:01;2.83;;;1.70;;
67747;SDS011;54543;50.712;6.070;2023-08-24T13:01:37;2.95;;;1.50;;
67747;SDS011;54543;50.712;6.070;2023-08-24T13:04:04;2.92;;;1.50;;
67747;SDS011;54543;50.712;6.070;2023-08-24T13:06:30;3.28;;;1.40;;
67747;SDS011;54543;50.712;6.070;2023-08-24T13:08:58;2.53;;;1.50;;
67747;SDS011;54543;50.712;6.070;2023-08-24T13:11:29;2.03;;;1.30;;
67747;SDS011;54543;50.712;6.070;2023-08-24T13:13:57;4.57;;;1.60;;
67747;SDS011;54543;50.712;6.070;2023-08-24T13:16:23;4.90;;;1.73;;
67747;SDS011;54543;50.712;6.070;2023-08-24T13:18:49;3.13;;;1.80;;
67747;SDS011;54543;50.712;6.070;2023-08-24T13:21:17;4.38;;;1.67;;
67747;SDS011;54543;50.712;6.070;2023-08-24T13:23:49;3.88;;;1.85;;
67747;SDS011;54543;50.712;6.070;2023-08-24T13:28:55;5.53;;;2.00;;
67747;SDS011;54543;50.712;6.070;2023-08-24T13:31:22;2.70;;;1.67;;
67747;SDS011;54543;50.712;6.070;2023-08-24T13:33:50;3.63;;;2.00;;
67747;SDS011;54543;50.712;6.070;2023-08-24T13:36:17;3.50;;;2.00;;
67747;SDS011;54543;50.712;6.070;2023-08-24T13:38:44;5.40;;;2.40;;
67747;SDS011;54543;50.712;6.070;2023-08-24T13:41:10;3.97;;;2.08;;
67747;SDS011;54543;50.712;6.070;2023-08-24T13:43:36;4.80;;;2.00;;
67747;SDS011;54543;50.712;6.070;2023-08-24T13:46:01;4.47;;;2.30;;
67747;SDS011;54543;50.712;6.070;2023-08-24T13:48:27;4.45;;;2.13;;
67747;SDS011;54543;50.712;6.070;2023-08-24T13:50:55;4.88;;;2.08;;
67747;SDS011;54543;50.712;6.070;2023-08-24T13:53:21;3.45;;;2.30;;
67747;SDS011;54543;50.712;6.070;2023-08-24T13:55:47;3.55;;;2.10;;
67747;SDS011;54543;50.712;6.070;2023-08-24T13:58:13;3.35;;;2.17;;
67747;SDS011;54543;50.712;6.070;2023-08-24T14:00:38;4.35;;;2.00;;
67747;SDS011;54543;50.712;6.070;2023-08-24T14:03:04;3.42;;;2.03;;
67747;SDS011;54543;50.712;6.070;2023-08-24T14:05:32;4.47;;;2.13;;
67747;SDS011;54543;50.712;6.070;2023-08-24T14:07:57;5.25;;;2.25;;
67747;SDS011;54543;50.712;6.070;2023-08-24T14:10:23;3.55;;;1.90;;
67747;SDS011;54543;50.712;6.070;2023-08-24T14:12:48;3.60;;;1.90;;
67747;SDS011;54543;50.712;6.070;2023-08-24T14:15:14;3.08;;;1.55;;
67747;SDS011;54543;50.712;6.070;2023-08-24T14:17:39;2.53;;;1.70;;
67747;SDS011;54543;50.712;6.070;2023-08-24T14:20:05;2.95;;;1.58;;
67747;SDS011;54543;50.712;6.070;2023-08-24T14:22:31;3.65;;;2.05;;
67747;SDS011;54543;50.712;6.070;2023-08-24T14:24:57;2.85;;;2.05;;
67747;SDS011;54543;50.712;6.070;2023-08-24T14:27:23;3.47;;;2.10;;
67747;SDS011;54543;50.712;6.070;2023-08-24T14:29:48;3.30;;;1.83;;
67747;SDS011;54543;50.712;6.070;2023-08-24T14:32:14;3.15;;;1.80;;
67747;SDS011;54543;50.712;6.070;2023-08-24T14:34:40;3.60;;;1.58;;
67747;SDS011;54543;50.712;6.070;2023-08-24T14:37:05;3.28;;;1.50;;
67747;SDS011;54543;50.712;6.070;2023-08-24T14:39:31;3.50;;;1.52;;
67747;SDS011;54543;50.712;6.070;2023-08-24T14:41:57;3.03;;;1.27;;
67747;SDS011;54543;50.712;6.070;2023-08-24T14:44:23;2.75;;;1.50;;
67747;SDS011;54543;50.712;6.070;2023-08-24T14:46:48;1.10;;;1.00;;
67747;SDS011;54543;50.712;6.070;2023-08-24T14:49:14;2.30;;;1.27;;
67747;SDS011;54543;50.712;6.070;2023-08-24T14:51:43;2.58;;;1.40;;
67747;SDS011;54543;50.712;6.070;2023-08-24T14:54:10;2.70;;;1.70;;
67747;SDS011;54543;50.712;6.070;2023-08-24T14:56:38;2.65;;;1.35;;
67747;SDS011;54543;50.712;6.070;2023-08-24T14:59:04;2.58;;;1.60;;
67747;SDS011;54543;50.712;6.070;2023-08-24T15:01:30;3.33;;;1.80;;
67747;SDS011;54543;50.712;6.070;2023-08-24T15:03:56;2.28;;;1.33;;
67747;SDS011;54543;50.712;6.070;2023-08-24T15:06:22;1.92;;;1.40;;
67747;SDS011;54543;50.712;6.070;2023-08-24T15:08:48;1.55;;;1.15;;
67747;SDS011;54543;50.712;6.070;2023-08-24T15:11:14;2.58;;;1.30;;
67747;SDS011;54543;50.712;6.070;2023-08-24T15:13:41;1.92;;;1.30;;
67747;SDS011;54543;50.712;6.070;2023-08-24T15:16:08;1.67;;;1.20;;
67747;SDS011;54543;50.712;6.070;2023-08-24T15:18:35;2.70;;;1.00;;
67747;SDS011;54543;50.712;6.070;2023-08-24T15:21:00;2.00;;;1.25;;
67747;SDS011;54543;50.712;6.070;2023-08-24T15:23:27;3.17;;;1.52;;
67747;SDS011;54543;50.712;6.070;2023-08-24T15:25:54;1.27;;;1.17;;
67747;SDS011;54543;50.712;6.070;2023-08-24T15:28:21;1.70;;;1.02;;
67747;SDS011;54543;50.712;6.070;2023-08-24T15:30:46;2.78;;;1.00;;
67747;SDS011;54543;50.712;6.070;2023-08-24T15:33:12;1.40;;;1.10;;
67747;SDS011;54543;50.712;6.070;2023-08-24T15:35:42;2.03;;;1.10;;
67747;SDS011;54543;50.712;6.070;2023-08-24T15:38:08;4.57;;;1.38;;
67747;SDS011;54543;50.712;6.070;2023-08-24T15:40:37;1.83;;;1.17;;
67747;SDS011;54543;50.712;6.070;2023-08-24T15:43:03;2.55;;;1.20;;
67747;SDS011;54543;50.712;6.070;2023-08-24T15:45:30;1.45;;;1.10;;
67747;SDS011;54543;50.712;6.070;2023-08-24T15:47:56;1.40;;;1.00;;
67747;SDS011;54543;50.712;6.070;2023-08-24T15:50:23;1.98;;;1.10;;
67747;SDS011;54543;50.712;6.070;2023-08-24T15:52:49;1.42;;;1.05;;
67747;SDS011;54543;50.712;6.070;2023-08-24T15:55:14;0.90;;;0.90;;
67747;SDS011;54543;50.712;6.070;2023-08-24T15:57:40;1.48;;;1.00;;
67747;SDS011;54543;50.712;6.070;2023-08-24T16:00:06;2.03;;;1.30;;
67747;SDS011;54543;50.712;6.070;2023-08-24T16:02:37;1.75;;;1.00;;
67747;SDS011;54543;50.712;6.070;2023-08-24T16:05:04;2.63;;;1.30;;
67747;SDS011;54543;50.712;6.070;2023-08-24T16:07:30;1.15;;;1.00;;
67747;SDS011;54543;50.712;6.070;2023-08-24T16:09:56;3.42;;;2.05;;
67747;SDS011;54543;50.712;6.070;2023-08-24T16:12:23;2.58;;;1.40;;
67747;SDS011;54543;50.712;6.070;2023-08-24T16:14:48;4.00;;;1.52;;
67747;SDS011;54543;50.712;6.070;2023-08-24T16:17:14;2.55;;;1.20;;
67747;SDS011;54543;50.712;6.070;2023-08-24T16:19:39;1.40;;;1.13;;
67747;SDS011;54543;50.712;6.070;2023-08-24T16:22:06;1.85;;;1.30;;
67747;SDS011;54543;50.712;6.070;2023-08-24T16:24:34;1.52;;;1.15;;
67747;SDS011;54543;50.712;6.070;2023-08-24T16:27:00;1.83;;;1.30;;